Etusivu
METAR-TAF:

METAR-TAF

Lentoasemat :

Sotilaslentoasema Lanvéoc-Poulmic

Lanvéoc, Ranska

Leveyspiiri: 48-17N, Pituuspiiri: 004-26W, korkeus merenpinnasta: 87 m

Tämänhetkinen sää

Tämä raportti tehtiin 33 minuuttia sitten, kello 11.00 UTC
Tuuli 10 kn idästä, vaihdellen koillisen ja idän/kaakon välillä
Lämpötila 25°C
Kosteus 34%
Ilmanpaine 1022 hPa
Näkyvyys 10 km tai enemmän
ei pilviä alle 1500 m:ssä eikä cumulonimbus-pilviä

METAR: LFRL 291100Z AUTO 09010KT 050V120 CAVOK 25/08 Q1022 NOSIG

Aika: 13:33 (11:33 UTC)

Sääennuste

Tämä raportti tehtiin 6 tuntia ja 33 minuuttia sitten, kello 05.00 UTC
Ennuste voimassa 29. päivästä klo 06 UTC - 30. päivään klo 06 UTC
Tuuli 10 kn idästä
Näkyvyys 10 km tai enemmän
ei pilviä alle 1500 m:ssä eikä cumulonimbus-pilviä
Ajoittain
29. päivästä klo 16 UTC - 29. päivään klo 21 UTC
Tuuli 5 kn lännestä

TAF: LFRL 290500Z 2906/3006 10010KT CAVOK TEMPO 2916/2921 27005KT

Säähavainnot ja -ennusteet yli 4000 lentoasemalta (METAR- ja TAF-raportit).

Käytössä olevat sääasemat on merkitty karttaan keltaisilla ja punaisilla pisteillä.

Aseta hiiri pisteen päälle nähdäksesi sääaseman nimen.

Klikkaa sitten nähdäksesi säähavainnot ja -ennusteet.

Kartan vaihtaminen: klikkaa mustalla rastilla varustettuja vihreitä pisteitä, niin voit zoomata sisään; viivalla varustettua vihreää pistettä, niin voit zoomata ulos tai vihreitä nuolia, niin pääset viereisille kartoille.


METAR-TAF: